Time;durP1;ratioP1;P1;durP2;ratioP2;P2;SDS_P1;SDS_P2;PMS_P1;PMS_P2;Temp;Humidity;BMP_temperature;BMP_pressure;BME280_temperature;BME280_humidity;BME280_pressure;Samples;Min_cycle;Max_cycle;Signal;HPM_P1;HPM_P2
2021/03/11 00:00:18;;;;;;;9.58;4.10;;;;;;;-0.73;63.19;101547.38;1786805;80;21057;-59
2021/03/11 00:02:45;;;;;;;7.60;3.72;;;;;;;-0.71;63.93;101543.47;1786857;80;21253;-58
2021/03/11 00:05:13;;;;;;;10.13;3.80;;;;;;;-0.72;64.34;101541.70;1786729;79;21121;-58
2021/03/11 00:07:42;;;;;;;7.80;3.60;;;;;;;-0.73;64.55;101530.70;1786986;80;21530;-58
2021/03/11 00:10:10;;;;;;;7.55;3.80;;;;;;;-0.74;64.08;101539.45;1786896;80;21157;-59
2021/03/11 00:12:42;;;;;;;8.58;3.83;;;;;;;-0.73;62.89;101533.33;1786756;79;21120;-59
2021/03/11 00:15:13;;;;;;;7.97;3.83;;;;;;;-0.73;62.40;101524.11;1786804;80;21208;-59
2021/03/11 00:17:40;;;;;;;6.80;3.60;;;;;;;-0.72;63.57;101529.84;1786689;80;21147;-59
2021/03/11 00:20:11;;;;;;;9.90;3.77;;;;;;;-0.73;62.51;101528.06;1786916;80;21069;-59
2021/03/11 00:22:40;;;;;;;11.83;3.35;;;;;;;-0.73;63.47;101531.57;1786741;79;21093;-59
2021/03/11 00:25:10;;;;;;;8.30;3.58;;;;;;;-0.73;62.55;101544.73;1786986;80;21510;-59
2021/03/11 00:27:37;;;;;;;8.25;3.58;;;;;;;-0.74;62.45;101531.55;1786707;80;21373;-60
2021/03/11 00:30:07;;;;;;;8.58;3.45;;;;;;;-0.74;61.35;101532.42;1786837;80;21061;-59
2021/03/11 00:32:35;;;;;;;9.53;4.28;;;;;;;-0.72;62.62;101537.74;1786830;80;21566;-58
2021/03/11 00:35:05;;;;;;;12.10;4.80;;;;;;;-0.72;65.21;101538.62;1786795;80;21137;-59
2021/03/11 00:37:32;;;;;;;13.95;5.03;;;;;;;-0.73;68.13;101523.67;1786771;80;21160;-60
2021/03/11 00:39:59;;;;;;;15.50;5.33;;;;;;;-0.76;69.53;101513.52;1786774;79;21339;-59
2021/03/11 00:42:27;;;;;;;12.65;5.50;;;;;;;-0.79;69.97;101499.83;1786819;80;21055;-58
2021/03/11 00:44:55;;;;;;;14.20;5.80;;;;;;;-0.81;70.33;101528.28;1768724;80;21180;-58
2021/03/11 00:47:23;;;;;;;18.80;5.30;;;;;;;-0.87;70.70;101520.70;1767038;81;21116;-58
2021/03/11 00:49:50;;;;;;;13.98;5.10;;;;;;;-0.93;70.65;101520.97;1758559;80;21134;-59
2021/03/11 00:52:19;;;;;;;11.68;5.55;;;;;;;-0.98;70.60;101510.35;1767013;81;21347;-58
2021/03/11 00:54:46;;;;;;;15.15;5.40;;;;;;;-1.03;71.17;101510.64;1782801;80;21054;-58
2021/03/11 00:57:14;;;;;;;14.00;5.20;;;;;;;-1.09;70.58;101513.12;1767062;81;20997;-58
2021/03/11 00:59:42;;;;;;;13.55;5.97;;;;;;;-1.14;70.73;101495.89;1782830;80;21031;-59
2021/03/11 01:02:10;;;;;;;14.45;5.92;;;;;;;-1.17;70.16;101505.94;1767012;81;21052;-58
2021/03/11 01:04:40;;;;;;;10.93;5.12;;;;;;;-1.20;69.52;101503.23;1782799;80;21094;-58
2021/03/11 01:07:08;;;;;;;13.32;5.67;;;;;;;-1.21;69.55;101501.45;1766922;81;21085;-58
2021/03/11 01:09:36;;;;;;;16.65;5.53;;;;;;;-1.23;69.43;101521.98;1782958;80;21075;-58
2021/03/11 01:12:05;;;;;;;13.35;5.25;;;;;;;-1.27;69.26;101490.74;1766863;81;21167;-58
2021/03/11 01:14:33;;;;;;;15.25;5.50;;;;;;;-1.30;69.48;101501.20;1783021;80;21161;-59
2021/03/11 01:17:00;;;;;;;16.23;5.33;;;;;;;-1.34;69.71;101505.91;1782969;80;21472;-59
2021/03/11 01:19:27;;;;;;;14.93;5.67;;;;;;;-1.36;69.64;101502.36;1767001;81;21221;-59
2021/03/11 01:21:55;;;;;;;16.27;5.87;;;;;;;-1.39;69.53;101504.91;1782905;80;21176;-58
2021/03/11 01:24:23;;;;;;;13.78;5.67;;;;;;;-1.42;69.70;101491.68;1766928;81;21195;-59
2021/03/11 01:26:51;;;;;;;14.53;5.45;;;;;;;-1.47;70.01;101491.11;1782819;80;21121;-59
2021/03/11 01:29:19;;;;;;;23.65;5.83;;;;;;;-1.54;70.03;101499.70;1766971;81;21372;-59
2021/03/11 01:31:47;;;;;;;10.78;4.58;;;;;;;-1.59;70.08;101490.80;1782856;80;21459;-58
2021/03/11 01:34:15;;;;;;;12.20;5.35;;;;;;;-1.62;70.40;101509.13;1766977;81;21061;-58
2021/03/11 01:36:43;;;;;;;15.83;4.97;;;;;;;-1.65;70.29;101488.89;1782781;80;21126;-58
2021/03/11 01:39:10;;;;;;;11.28;5.03;;;;;;;-1.68;70.01;101483.95;1766950;81;21147;-58
2021/03/11 01:41:38;;;;;;;12.35;4.72;;;;;;;-1.70;70.03;101485.66;1767032;81;21693;-58
2021/03/11 01:44:06;;;;;;;10.85;5.10;;;;;;;-1.73;69.92;101486.04;1786310;80;21058;-58
2021/03/11 01:46:34;;;;;;;13.55;4.95;;;;;;;-1.72;69.86;101489.58;1774676;80;21139;-58
2021/03/11 01:49:01;;;;;;;11.90;5.30;;;;;;;-1.74;69.92;101492.15;1760403;81;21085;-59
2021/03/11 01:51:29;;;;;;;9.73;5.35;;;;;;;-1.74;69.88;101486.89;1774582;80;21068;-59
2021/03/11 01:53:57;;;;;;;13.05;4.83;;;;;;;-1.75;70.22;101479.85;1760441;81;21811;-59
2021/03/11 01:56:24;;;;;;;10.30;4.25;;;;;;;-1.74;70.38;101482.95;1774609;80;21110;-58
2021/03/11 01:58:52;;;;;;;12.63;4.55;;;;;;;-1.72;70.84;101492.20;1760439;81;21145;-58
2021/03/11 02:01:19;;;;;;;11.88;4.42;;;;;;;-1.68;70.85;101501.05;1748674;80;21084;-59
2021/03/11 02:03:47;;;;;;;10.98;4.60;;;;;;;-1.66;71.13;101484.88;1760505;81;21041;-59
2021/03/11 02:06:15;;;;;;;17.07;5.15;;;;;;;-1.64;70.93;101491.98;1774544;80;21698;-59
2021/03/11 02:08:44;;;;;;;9.48;4.55;;;;;;;-1.62;70.64;101486.77;1760469;81;21113;-59
2021/03/11 02:11:13;;;;;;;10.10;4.47;;;;;;;-1.60;70.06;101514.00;1774528;80;21171;-59
2021/03/11 02:13:49;;;;;;;11.57;5.00;;;;;;;-1.61;70.12;101496.00;1760546;81;21156;-59
2021/03/11 02:16:27;;;;;;;12.00;5.00;;;;;;;-1.61;70.29;101496.00;1774257;80;21063;-59
2021/03/11 02:19:33;;;;;;;12.75;4.90;;;;;;;-1.61;70.05;101481.98;1758200;81;21374;-59
2021/03/11 02:22:09;;;;;;;14.80;4.70;;;;;;;-1.60;70.66;101496.91;1774682;80;21155;-59
2021/03/11 02:25:12;;;;;;;11.93;4.77;;;;;;;-1.53;69.68;101510.68;1873106;76;22740;-59
2021/03/11 02:28:11;;;;;;;12.15;5.17;;;;;;;-1.57;69.42;101490.82;1841154;78;21035;-58
2021/03/11 02:30:39;;;;;;;11.12;5.00;;;;;;;-1.58;69.72;101480.74;1841077;78;21185;-58
2021/03/11 02:33:08;;;;;;;14.35;5.20;;;;;;;-1.58;70.15;101487.32;1840986;77;20958;-59
2021/03/11 02:35:37;;;;;;;13.20;4.90;;;;;;;-1.59;69.93;101490.80;1841030;77;21024;-59
2021/03/11 02:38:04;;;;;;;12.07;5.35;;;;;;;-1.57;69.57;101507.51;1841109;78;20937;-59
2021/03/11 02:40:33;;;;;;;13.65;4.87;;;;;;;-1.57;69.59;101523.29;1841143;78;20914;-58
2021/03/11 02:43:03;;;;;;;12.75;5.28;;;;;;;-1.57;70.00;101485.56;1840956;78;21285;-58
2021/03/11 02:45:32;;;;;;;14.05;5.10;;;;;;;-1.59;69.83;101501.32;1829492;77;21491;-58
2021/03/11 02:48:01;;;;;;;19.42;5.33;;;;;;;-1.58;69.88;101497.84;1828192;77;21495;-59
2021/03/11 02:50:29;;;;;;;8.08;4.30;;;;;;;-1.56;70.34;101485.62;1810057;78;21130;-58
2021/03/11 02:52:59;;;;;;;12.73;4.92;;;;;;;-1.54;70.26;101518.11;1828110;78;21090;-59
2021/03/11 02:55:32;;;;;;;18.02;5.12;;;;;;;-1.53;70.62;101511.13;1810217;78;21689;-59
2021/03/11 02:58:00;;;;;;;12.93;5.08;;;;;;;-1.52;71.92;101519.04;1810053;78;21562;-59
2021/03/11 03:00:29;;;;;;;14.98;5.40;;;;;;;-1.51;71.27;101494.95;1828076;78;21084;-58
2021/03/11 03:02:57;;;;;;;15.32;5.30;;;;;;;-1.51;69.87;101498.45;1828132;77;21092;-59
2021/03/11 03:05:27;;;;;;;13.45;5.78;;;;;;;-1.47;71.70;101506.02;1828139;78;21031;-59
2021/03/11 03:07:55;;;;;;;11.12;5.80;;;;;;;-1.49;71.21;101541.47;1828185;78;21401;-58
2021/03/11 03:10:26;;;;;;;16.02;5.55;;;;;;;-1.48;71.14;101495.91;1828029;78;21062;-59
2021/03/11 03:12:56;;;;;;;10.70;4.80;;;;;;;-1.47;70.89;101488.48;1828148;78;20976;-59
2021/03/11 03:15:24;;;;;;;14.87;5.08;;;;;;;-1.47;69.71;101568.70;1828048;78;21034;-59
2021/03/11 03:17:52;;;;;;;15.38;6.22;;;;;;;-1.48;69.07;101509.06;1828138;78;21059;-59
2021/03/11 03:20:22;;;;;;;13.22;4.45;;;;;;;-1.47;68.99;101512.59;1828111;78;21353;-59
2021/03/11 03:22:50;;;;;;;14.47;4.92;;;;;;;-1.48;69.38;101506.42;1827859;78;21094;-59
2021/03/11 03:25:17;;;;;;;13.65;4.78;;;;;;;-1.47;68.44;101522.67;1828171;78;20999;-59
2021/03/11 03:27:45;;;;;;;14.28;5.22;;;;;;;-1.46;68.40;101524.45;1828116;78;21033;-59
2021/03/11 03:30:19;;;;;;;14.03;4.87;;;;;;;-1.45;68.04;101523.61;1828153;78;21031;-59
2021/03/11 03:32:47;;;;;;;11.90;4.83;;;;;;;-1.46;67.98;101500.78;1828101;78;21645;-59
2021/03/11 03:35:15;;;;;;;9.90;4.50;;;;;;;-1.45;68.79;101515.71;1827836;78;21704;-58
2021/03/11 03:37:45;;;;;;;13.95;5.42;;;;;;;-1.46;68.24;101524.45;1827451;78;20999;-58
2021/03/11 03:40:13;;;;;;;13.55;4.72;;;;;;;-1.47;69.10;101520.05;1827553;78;20964;-58
2021/03/11 03:43:13;;;;;;;12.28;4.60;;;;;;;-1.48;68.18;101520.89;1827429;78;21117;-58
2021/03/11 03:45:47;;;;;;;14.90;5.45;;;;;;;-1.47;67.31;101517.86;1839822;78;21432;-58
2021/03/11 03:48:29;;;;;;;12.05;5.03;;;;;;;-1.47;68.43;101509.52;1840011;78;21120;-58
2021/03/11 03:50:57;;;;;;;12.58;5.00;;;;;;;-1.46;68.72;101531.03;1840339;78;21143;-59
2021/03/11 03:53:31;;;;;;;15.30;5.17;;;;;;;-1.49;68.89;101510.35;1840415;78;20926;-59
2021/03/11 03:56:00;;;;;;;15.70;4.85;;;;;;;-1.49;68.36;101533.58;1838892;78;21116;-60
2021/03/11 03:58:28;;;;;;;14.73;4.92;;;;;;;-1.53;68.85;101505.86;1840440;78;21677;-60
2021/03/11 04:00:55;;;;;;;11.90;4.15;;;;;;;-1.56;68.99;101501.40;1840264;78;20941;-60
2021/03/11 04:03:23;;;;;;;10.80;5.08;;;;;;;-1.56;68.17;101529.02;1840331;78;20922;-58
2021/03/11 04:05:53;;;;;;;15.53;4.80;;;;;;;-1.59;67.98;101530.25;1840288;78;20993;-58
2021/03/11 04:08:22;;;;;;;12.30;4.50;;;;;;;-1.59;69.26;101519.73;1785431;78;21457;-59
2021/03/11 04:10:50;;;;;;;10.03;3.98;;;;;;;-1.60;68.40;101542.49;1840432;78;22319;-58
2021/03/11 04:13:17;;;;;;;10.68;4.17;;;;;;;-1.59;67.63;101549.98;1840247;78;21123;-58
2021/03/11 04:15:45;;;;;;;9.13;4.45;;;;;;;-1.61;67.28;101528.00;1840415;78;20942;-58
2021/03/11 04:18:13;;;;;;;16.97;5.17;;;;;;;-1.63;67.27;101521.37;1840302;78;20957;-58
2021/03/11 04:20:41;;;;;;;20.50;5.25;;;;;;;-1.65;67.92;101523.08;1840440;78;21023;-58
2021/03/11 04:23:08;;;;;;;17.17;4.75;;;;;;;-1.66;67.50;101526.96;1840154;76;21366;-58
2021/03/11 04:25:36;;;;;;;9.00;4.35;;;;;;;-1.67;68.17;101527.41;1810524;78;21049;-58
2021/03/11 04:28:03;;;;;;;11.33;5.35;;;;;;;-1.67;67.88;101571.20;1840246;78;21051;-59
2021/03/11 04:30:31;;;;;;;12.55;4.70;;;;;;;-1.68;68.56;101537.45;1840398;78;21036;-59
2021/03/11 04:32:58;;;;;;;11.40;4.12;;;;;;;-1.73;68.98;101520.22;1840320;78;21108;-59
2021/03/11 04:35:26;;;;;;;9.23;4.30;;;;;;;-1.73;69.27;101540.39;1840485;77;22718;-59
2021/03/11 04:37:53;;;;;;;8.33;4.15;;;;;;;-1.75;67.00;101537.70;1840376;78;21348;-59
2021/03/11 04:40:21;;;;;;;10.43;4.70;;;;;;;-1.73;68.72;101546.52;1840396;78;21049;-59
2021/03/11 04:42:48;;;;;;;12.73;4.83;;;;;;;-1.73;69.81;101549.15;1840443;78;21041;-58
2021/03/11 04:45:16;;;;;;;8.33;4.58;;;;;;;-1.73;69.16;101557.04;1827827;78;21424;-59
2021/03/11 04:47:45;;;;;;;10.38;4.72;;;;;;;-1.73;69.12;101545.20;1824285;77;21371;-59
2021/03/11 04:50:12;;;;;;;9.43;4.15;;;;;;;-1.71;69.28;101543.04;1824187;78;20995;-59
2021/03/11 04:52:40;;;;;;;12.43;5.00;;;;;;;-1.70;69.00;101543.09;1824300;78;21119;-59
2021/03/11 04:55:09;;;;;;;11.50;4.85;;;;;;;-1.69;70.11;101551.86;1824173;78;21106;-59
2021/03/11 04:57:36;;;;;;;16.75;5.33;;;;;;;-1.70;69.16;101547.05;1824292;78;21130;-59
2021/03/11 05:00:06;;;;;;;8.48;3.95;;;;;;;-1.69;69.73;101542.25;1824277;78;21421;-59
2021/03/11 05:02:34;;;;;;;10.98;5.00;;;;;;;-1.67;69.82;101572.52;1824194;78;20936;-59
2021/03/11 05:05:07;;;;;;;10.53;4.90;;;;;;;-1.65;70.19;101561.64;1824307;77;21492;-59
2021/03/11 05:07:34;;;;;;;12.50;4.85;;;;;;;-1.59;70.64;101553.92;1824044;78;21499;-59
2021/03/11 05:10:02;;;;;;;11.53;4.75;;;;;;;-1.51;70.77;101536.59;1824315;78;21027;-59
2021/03/11 05:12:30;;;;;;;13.05;4.87;;;;;;;-1.45;70.96;101545.97;1824199;77;21427;-59
2021/03/11 05:14:58;;;;;;;14.15;5.45;;;;;;;-1.38;70.43;101559.31;1824205;78;21007;-59
2021/03/11 05:17:25;;;;;;;10.32;4.60;;;;;;;-1.34;70.43;101594.06;1824254;77;20932;-59
2021/03/11 05:19:53;;;;;;;13.18;4.78;;;;;;;-1.30;70.20;101561.71;1824335;78;20909;-59
2021/03/11 05:22:20;;;;;;;10.35;5.42;;;;;;;-1.29;70.75;101600.33;1824242;78;21102;-59
2021/03/11 05:24:48;;;;;;;12.30;5.00;;;;;;;-1.28;69.36;101585.45;1828114;78;21740;-59
2021/03/11 05:27:17;;;;;;;12.53;6.00;;;;;;;-1.25;70.61;101565.35;1830028;77;21023;-59
2021/03/11 05:29:46;;;;;;;13.35;5.22;;;;;;;-1.19;70.44;101582.64;1830426;77;20999;-59
2021/03/11 05:32:14;;;;;;;12.07;4.95;;;;;;;-1.13;69.60;101631.03;1830289;78;20865;-59
2021/03/11 05:34:45;;;;;;;12.47;5.53;;;;;;;-1.07;69.24;101585.13;1830298;78;21027;-59
2021/03/11 05:37:13;;;;;;;12.55;5.62;;;;;;;-1.02;69.80;101621.25;1830417;77;22240;-59
2021/03/11 05:39:41;;;;;;;12.05;5.58;;;;;;;-0.93;70.43;101597.33;1830193;78;21082;-59
2021/03/11 05:42:09;;;;;;;13.08;4.95;;;;;;;-0.88;69.60;101583.44;1830387;77;21000;-60
2021/03/11 05:44:40;;;;;;;12.40;5.45;;;;;;;-0.85;69.22;101627.81;1831075;77;21153;-60
2021/03/11 05:47:07;;;;;;;20.30;5.62;;;;;;;-0.76;69.21;101607.00;1832117;78;21119;-60
2021/03/11 05:49:35;;;;;;;12.88;5.33;;;;;;;-0.61;68.59;101621.85;1832035;78;21361;-60
2021/03/11 05:52:04;;;;;;;11.50;5.30;;;;;;;-0.52;68.28;101626.91;1832080;78;21052;-60
2021/03/11 05:54:31;;;;;;;14.95;5.83;;;;;;;-0.44;68.52;101634.16;1832103;78;21468;-59
2021/03/11 05:57:00;;;;;;;15.48;5.58;;;;;;;-0.31;67.41;101616.89;1789861;78;21000;-58
2021/03/11 05:59:28;;;;;;;13.55;6.03;;;;;;;-0.24;66.73;101614.39;1816213;78;21154;-59
2021/03/11 06:01:55;;;;;;;12.80;5.47;;;;;;;-0.25;66.76;101638.97;1832113;78;21242;-59
2021/03/11 06:04:23;;;;;;;14.53;5.90;;;;;;;-0.31;67.33;101627.44;1831945;78;21111;-59
2021/03/11 06:06:52;;;;;;;18.90;5.65;;;;;;;-0.32;68.30;101620.38;1831936;77;20993;-59
2021/03/11 06:09:21;;;;;;;13.78;6.00;;;;;;;-0.36;66.98;101639.58;1832038;78;20914;-59
2021/03/11 06:11:49;;;;;;;15.43;5.53;;;;;;;-0.36;66.96;101645.30;1831984;78;21135;-59
2021/03/11 06:14:17;;;;;;;15.23;5.10;;;;;;;-0.33;66.90;101665.13;1832103;78;21715;-58
2021/03/11 06:17:00;;;;;;;14.85;5.70;;;;;;;-0.31;66.88;101702.55;1831965;78;20882;-59
2021/03/11 06:19:28;;;;;;;17.25;6.03;;;;;;;-0.32;66.31;101669.14;1832382;78;21567;-59
2021/03/11 06:21:56;;;;;;;11.18;5.67;;;;;;;-0.32;67.43;101642.78;1832080;77;20969;-59
2021/03/11 06:24:24;;;;;;;15.35;6.47;;;;;;;-0.34;65.98;101670.81;1831916;77;20925;-59
2021/03/11 06:26:51;;;;;;;16.07;6.42;;;;;;;-0.40;65.51;101698.34;1832038;78;21697;-59
2021/03/11 06:29:23;;;;;;;12.40;5.25;;;;;;;-0.41;66.48;101664.94;1831938;78;21123;-60
2021/03/11 06:31:48;;;;;;;12.82;5.53;;;;;;;-0.40;65.59;101667.16;1831936;77;21171;-60
2021/03/11 06:34:21;;;;;;;7.92;4.17;;;;;;;-0.41;65.98;101700.52;1831957;78;21428;-60
2021/03/11 06:36:49;;;;;;;12.43;5.50;;;;;;;-0.41;65.74;101667.57;1825932;78;21559;-59
2021/03/11 06:39:28;;;;;;;12.73;5.15;;;;;;;-0.36;65.66;101659.79;1799140;79;21334;-59
2021/03/11 06:41:57;;;;;;;17.50;5.53;;;;;;;-0.31;64.87;101665.65;1799159;79;21083;-58
2021/03/11 06:44:37;;;;;;;14.10;5.58;;;;;;;-0.29;64.81;101690.70;1812446;78;21128;-59
2021/03/11 06:47:10;;;;;;;14.93;5.42;;;;;;;-0.26;65.46;101698.69;1830247;78;21086;-59
2021/03/11 06:50:02;;;;;;;12.40;5.85;;;;;;;-0.25;65.69;101669.28;1804074;77;21131;-59
2021/03/11 06:52:30;;;;;;;12.75;5.40;;;;;;;-0.24;64.44;101717.19;1799339;79;21567;-59
2021/03/11 06:55:05;;;;;;;11.48;5.72;;;;;;;-0.27;64.46;101673.19;1799301;79;21111;-59
2021/03/11 06:57:37;;;;;;;13.08;5.40;;;;;;;-0.26;65.04;101710.98;1819731;78;21227;-58
2021/03/11 07:00:22;;;;;;;13.55;5.70;;;;;;;-0.20;64.83;101696.23;1799218;79;20993;-58
2021/03/11 07:02:55;;;;;;;17.87;5.70;;;;;;;-0.20;64.92;101684.77;1799195;79;21178;-58
2021/03/11 07:05:26;;;;;;;13.13;5.42;;;;;;;-0.21;64.61;101693.53;1798384;79;22270;-59
2021/03/11 07:08:07;;;;;;;11.15;5.15;;;;;;;-0.26;64.12;101681.55;1799317;79;21067;-59
2021/03/11 07:10:36;;;;;;;9.75;4.87;;;;;;;-0.31;62.73;101709.13;1816439;78;21099;-59
2021/03/11 07:13:04;;;;;;;13.90;5.03;;;;;;;-0.30;61.59;101695.52;1832175;78;21059;-59
2021/03/11 07:15:34;;;;;;;13.98;5.25;;;;;;;-0.31;60.39;101693.33;1812996;78;21087;-59
2021/03/11 07:18:08;;;;;;;14.28;5.08;;;;;;;-0.30;60.23;101699.47;1818688;78;22254;-60
2021/03/11 07:20:36;;;;;;;10.05;4.75;;;;;;;-0.31;61.12;101689.37;1805457;78;21218;-61
2021/03/11 07:23:12;;;;;;;11.33;5.17;;;;;;;-0.28;61.15;101706.11;1816443;78;21079;-59
2021/03/11 07:25:47;;;;;;;13.53;5.03;;;;;;;-0.28;60.34;101707.42;1817877;77;21116;-60
2021/03/11 07:28:28;;;;;;;10.93;5.55;;;;;;;-0.32;61.55;101681.00;1829281;78;21136;-60
2021/03/11 07:31:02;;;;;;;15.18;6.10;;;;;;;-0.28;60.98;101685.90;1831509;78;21346;-59
2021/03/11 07:33:31;;;;;;;14.78;5.22;;;;;;;-0.22;60.67;101711.52;1820902;78;21564;-59
2021/03/11 07:36:01;;;;;;;17.37;5.72;;;;;;;-0.20;61.30;101692.27;1824055;78;21101;-59
2021/03/11 07:38:30;;;;;;;13.15;5.37;;;;;;;-0.14;59.81;101716.55;1827302;78;21120;-59
2021/03/11 07:41:03;;;;;;;13.68;5.03;;;;;;;-0.11;59.70;101692.93;1823770;78;21658;-59
2021/03/11 07:43:33;;;;;;;13.25;4.90;;;;;;;-0.10;58.65;101715.80;1824474;78;21056;-60
2021/03/11 07:46:04;;;;;;;11.18;5.25;;;;;;;-0.11;58.44;101706.11;1824236;78;21115;-60
2021/03/11 07:48:32;;;;;;;13.68;5.80;;;;;;;-0.10;58.14;101677.57;1820768;78;21501;-60
2021/03/11 07:51:02;;;;;;;14.18;5.25;;;;;;;-0.06;58.50;101724.66;1818883;78;21156;-59
2021/03/11 07:53:31;;;;;;;14.18;5.87;;;;;;;-0.05;59.75;101687.80;1764764;78;21113;-59
2021/03/11 07:56:00;;;;;;;13.68;5.72;;;;;;;0.02;59.77;101683.97;1823823;78;21407;-59
2021/03/11 07:58:33;;;;;;;11.73;4.95;;;;;;;0.08;59.58;101681.47;1763705;78;21159;-59
2021/03/11 08:01:04;;;;;;;11.15;4.80;;;;;;;0.05;58.23;101686.68;1822541;78;21118;-59
2021/03/11 08:03:32;;;;;;;13.60;4.55;;;;;;;-0.02;58.81;101677.31;1810043;78;21179;-59
2021/03/11 08:06:21;;;;;;;9.70;4.53;;;;;;;0.02;59.56;101689.25;1839758;78;21604;-59
2021/03/11 08:08:56;;;;;;;13.97;4.33;;;;;;;0.11;56.92;101686.81;1872630;76;22708;-59
2021/03/11 08:11:42;;;;;;;14.07;4.90;;;;;;;0.05;52.76;101705.14;1840816;78;21037;-60
2021/03/11 08:14:25;;;;;;;18.50;4.62;;;;;;;0.04;52.47;101733.68;1840808;77;21361;-59
2021/03/11 08:16:53;;;;;;;11.38;3.95;;;;;;;0.02;52.18;101691.88;1841025;78;20926;-59
2021/03/11 08:19:40;;;;;;;12.30;4.17;;;;;;;0.05;53.00;101698.55;1840986;78;20986;-59
2021/03/11 08:22:07;;;;;;;;;;;;;;;0.08;52.06;101715.34;1843758;78;20907;-60
2021/03/11 08:24:43;;;;;;;10.25;3.65;;;;;;;0.08;53.03;101698.61;1840985;78;20127;-60
2021/03/11 08:27:33;;;;;;;10.10;3.87;;;;;;;0.06;49.64;101716.15;1840984;78;21354;-59
2021/03/11 08:30:01;;;;;;;10.00;3.40;;;;;;;0.09;50.09;101716.22;1836684;76;21088;-59
2021/03/11 08:32:49;;;;;;;8.15;3.75;;;;;;;0.13;50.93;101761.62;1838300;78;20993;-59
2021/03/11 08:35:34;;;;;;;6.85;3.80;;;;;;;0.11;49.04;101715.83;1835276;78;20985;-60
2021/03/11 08:38:22;;;;;;;11.97;4.50;;;;;;;0.11;49.85;101701.31;1820532;78;21128;-60
2021/03/11 08:41:03;;;;;;;9.18;4.28;;;;;;;0.13;50.92;101721.61;1833796;78;21363;-60
2021/03/11 08:43:43;;;;;;;11.40;3.60;;;;;;;0.14;51.59;101738.34;1808810;78;21135;-60
2021/03/11 08:46:15;;;;;;;14.20;4.75;;;;;;;0.12;52.37;101717.64;1827875;78;21011;-58
2021/03/11 08:49:01;;;;;;;14.30;4.35;;;;;;;0.10;51.70;101731.19;1830773;78;21069;-60
2021/03/11 08:51:35;;;;;;;10.53;4.70;;;;;;;0.10;52.24;101712.31;1809229;78;21213;-59
2021/03/11 08:54:10;;;;;;;14.73;4.62;;;;;;;0.11;52.78;101707.50;1814162;78;21397;-60
2021/03/11 08:56:40;;;;;;;8.25;3.33;;;;;;;0.15;52.30;101721.66;1823055;78;21183;-59
2021/03/11 08:59:14;;;;;;;10.50;4.10;;;;;;;0.19;51.99;101749.89;1816939;78;21187;-59
2021/03/11 09:01:52;;;;;;;9.23;3.95;;;;;;;0.21;52.96;101744.22;1815818;78;21561;-59
2021/03/11 09:04:39;;;;;;;11.78;4.45;;;;;;;0.21;52.49;101758.72;1811573;78;21762;-59
2021/03/11 09:07:35;;;;;;;8.18;3.80;;;;;;;0.21;52.61;101715.61;1824029;77;21779;-60
2021/03/11 09:10:11;;;;;;;7.28;3.20;;;;;;;0.26;53.97;101726.74;1779586;77;22146;-59
2021/03/11 09:12:44;;;;;;;10.15;4.10;;;;;;;0.37;50.26;101737.99;1816281;77;21131;-59
2021/03/11 09:15:18;;;;;;;8.53;3.90;;;;;;;0.39;51.06;101719.13;1815765;78;21042;-52
2021/03/11 09:17:51;;;;;;;9.00;3.60;;;;;;;0.41;51.71;101766.23;1780994;79;21186;-52
2021/03/11 09:20:25;;;;;;;13.72;3.75;;;;;;;0.39;51.16;101734.96;1732999;81;21216;-52
2021/03/11 09:22:58;;;;;;;10.15;4.15;;;;;;;0.37;49.37;101759.97;1728870;81;21497;-52
2021/03/11 09:25:35;;;;;;;10.15;3.75;;;;;;;0.38;50.49;101749.01;1737986;80;26611;-52
2021/03/11 09:28:09;;;;;;;11.05;4.25;;;;;;;0.38;50.42;101747.69;1758592;80;28239;-51
2021/03/11 09:30:42;;;;;;;13.58;4.50;;;;;;;0.40;49.85;101724.86;1786756;80;21109;-52
2021/03/11 09:35:54;;;;;;;7.37;3.90;;;;;;;0.50;51.44;101728.61;1872855;76;22581;-52
2021/03/11 09:38:25;;;;;;;12.93;4.53;;;;;;;0.50;51.06;101720.24;1811159;78;20926;-51
2021/03/11 09:40:58;;;;;;;14.40;4.70;;;;;;;0.54;51.46;101725.17;1811234;78;22248;-51
2021/03/11 09:43:33;;;;;;;13.03;4.35;;;;;;;0.53;50.77;101771.77;1809594;78;21415;-51
2021/03/11 09:46:19;;;;;;;9.98;4.12;;;;;;;0.53;51.24;101732.63;1805476;78;20980;-52
2021/03/11 09:48:55;;;;;;;10.37;4.27;;;;;;;0.55;52.42;101737.51;1857498;75;22381;-52
2021/03/11 09:51:27;;;;;;;9.55;4.85;;;;;;;0.48;51.67;101735.60;1807853;79;20934;-52
2021/03/11 09:54:03;;;;;;;10.43;4.87;;;;;;;0.47;52.63;101729.41;1807875;79;21364;-51
2021/03/11 09:56:40;;;;;;;10.50;4.70;;;;;;;0.48;52.44;101727.69;1758786;81;20936;-52
2021/03/11 09:59:11;;;;;;;11.25;4.55;;;;;;;0.51;52.80;101731.26;1750578;82;21034;-52
2021/03/11 10:01:47;;;;;;;8.98;4.12;;;;;;;0.50;51.65;101731.24;1756079;80;21038;-53
2021/03/11 10:04:25;;;;;;;9.18;4.05;;;;;;;0.47;51.29;101709.62;1757484;80;21117;-52
2021/03/11 10:06:55;;;;;;;11.33;4.42;;;;;;;0.47;52.76;101712.70;1771525;80;21207;-59
2021/03/11 10:09:25;;;;;;;11.50;4.78;;;;;;;0.47;51.89;101692.47;1763079;80;21147;-60
2021/03/11 10:11:55;;;;;;;11.57;5.00;;;;;;;0.48;51.45;101699.53;1763548;80;21352;-60
2021/03/11 10:14:28;;;;;;;8.43;4.20;;;;;;;0.53;52.11;101729.55;1769225;80;21445;-60
2021/03/11 10:17:06;;;;;;;11.10;4.50;;;;;;;0.53;51.74;101720.30;1768213;80;21168;-59
2021/03/11 10:19:33;;;;;;;13.95;4.85;;;;;;;0.50;51.59;101735.20;1765715;80;21433;-59
2021/03/11 10:22:17;;;;;;;12.68;4.40;;;;;;;0.45;53.14;101688.91;1773414;80;21621;-59
2021/03/11 10:24:50;;;;;;;8.75;4.35;;;;;;;0.51;53.46;101706.19;1759941;80;21452;-59
2021/03/11 10:27:28;;;;;;;14.70;4.33;;;;;;;0.56;53.76;101712.89;1759120;80;21187;-59
2021/03/11 10:30:27;;;;;;;7.83;4.28;;;;;;;0.60;51.48;101713.87;1758827;80;21172;-59
2021/03/11 10:32:58;;;;;;;13.58;4.40;;;;;;;0.59;52.06;101700.20;1761951;80;21379;-60
2021/03/11 10:35:38;;;;;;;11.08;3.90;;;;;;;0.65;52.00;101699.02;1765288;80;21128;-60
2021/03/11 10:38:17;;;;;;;10.60;4.30;;;;;;;0.74;52.11;101718.99;1763355;80;21156;-60
2021/03/11 10:40:46;;;;;;;9.10;3.77;;;;;;;0.81;50.62;101700.22;1762397;80;21069;-61
2021/03/11 10:43:20;;;;;;;16.05;4.17;;;;;;;0.78;49.87;101708.98;1763443;80;21133;-59
2021/03/11 10:45:49;;;;;;;11.08;4.15;;;;;;;0.72;50.32;101694.31;1762148;79;21251;-59
2021/03/11 10:48:18;;;;;;;11.35;4.15;;;;;;;0.75;51.74;101703.61;1763710;80;21118;-60
2021/03/11 10:50:51;;;;;;;10.15;3.98;;;;;;;0.82;50.36;101716.52;1764508;80;21121;-60
2021/03/11 10:53:20;;;;;;;8.33;3.77;;;;;;;0.87;49.82;101707.38;1777630;79;21126;-59
2021/03/11 10:55:48;;;;;;;11.53;4.08;;;;;;;0.85;49.70;101696.36;1765286;80;21101;-59
2021/03/11 10:58:26;;;;;;;9.63;4.12;;;;;;;0.83;48.29;101713.92;1763357;80;21500;-60
2021/03/11 11:01:17;;;;;;;15.35;4.37;;;;;;;0.82;49.20;101740.28;1770525;80;21057;-58
2021/03/11 11:03:42;;;;;;;11.78;3.65;;;;;;;0.79;48.91;101696.24;1758799;80;21097;-59
2021/03/11 11:06:10;;;;;;;10.13;3.27;;;;;;;0.81;48.85;101697.58;1750687;80;21109;-59
2021/03/11 11:08:45;;;;;;;13.58;3.33;;;;;;;0.85;48.64;101724.08;1754323;80;21114;-60
2021/03/11 11:11:15;;;;;;;9.53;3.58;;;;;;;0.87;47.93;101700.78;1770290;80;26172;-60
2021/03/11 11:13:42;;;;;;;7.12;3.47;;;;;;;0.85;47.71;101705.59;1762344;80;21129;-59
2021/03/11 11:16:11;;;;;;;8.65;3.60;;;;;;;0.92;48.80;101691.19;1769334;80;21121;-60
2021/03/11 11:18:42;;;;;;;11.10;3.15;;;;;;;0.99;47.66;101694.41;1772360;80;21449;-59
2021/03/11 11:21:12;;;;;;;6.75;3.30;;;;;;;1.03;48.17;101696.69;1756509;80;21125;-60
2021/03/11 11:23:40;;;;;;;9.10;3.30;;;;;;;1.07;47.17;101718.33;1753314;80;21446;-59
2021/03/11 11:26:10;;;;;;;9.78;4.00;;;;;;;1.10;46.04;101694.62;1763329;80;21136;-60
2021/03/11 11:28:38;;;;;;;8.50;3.37;;;;;;;1.12;47.20;101709.64;1754766;80;21546;-60
2021/03/11 11:31:06;;;;;;;7.45;3.35;;;;;;;1.15;46.84;101679.77;1752014;80;21156;-60
2021/03/11 11:33:36;;;;;;;13.45;4.50;;;;;;;1.19;46.40;101692.59;1749712;82;21055;-60
2021/03/11 11:36:05;;;;;;;7.30;3.67;;;;;;;1.22;46.76;101688.26;1721467;82;21421;-59
2021/03/11 11:38:37;;;;;;;7.37;3.80;;;;;;;1.25;45.66;101679.52;1760850;80;21089;-59
2021/03/11 11:41:06;;;;;;;10.45;3.42;;;;;;;1.28;46.62;101696.74;1751031;80;21196;-59
2021/03/11 11:43:35;;;;;;;7.30;3.37;;;;;;;1.31;46.59;101704.72;1723387;80;20998;-60